createdAt,value
2022-08-09T00:00:44.603Z,60.89
2022-08-09T00:01:52.909Z,49.72
2022-08-09T00:02:47.310Z,47.97
2022-08-09T00:04:08.509Z,50.94
2022-08-09T00:04:42.375Z,49.02
2022-08-09T00:06:16.143Z,46.18
2022-08-09T00:06:44.260Z,59.11
2022-08-09T00:07:44.734Z,55.34
2022-08-09T00:08:41.353Z,46.55
2022-08-09T00:09:41.346Z,45.11
2022-08-09T00:10:41.321Z,54.93
2022-08-09T00:12:02.650Z,50.21
2022-08-09T00:12:42.312Z,61.46
2022-08-09T00:13:41.297Z,47.11
2022-08-09T00:14:41.290Z,49.94
2022-08-09T00:15:58.842Z,48.60
2022-08-09T00:16:42.273Z,52.46
2022-08-09T00:18:04.743Z,46.47
2022-08-09T00:18:42.265Z,54.29
2022-08-09T00:19:41.255Z,54.27
2022-08-09T00:20:49.826Z,47.44
2022-08-09T00:21:43.253Z,47.09
2022-08-09T00:22:42.220Z,43.64
2022-08-09T00:23:55.408Z,45.86
2022-08-09T00:24:42.214Z,45.31
2022-08-09T00:25:41.202Z,48.57
2022-08-09T00:26:41.198Z,53.46
2022-08-09T00:27:43.085Z,48.62
2022-08-09T00:28:41.177Z,52.57
2022-08-09T00:30:25.232Z,48.02
2022-08-09T00:30:42.159Z,60.35
2022-08-09T00:33:50.699Z,55.44
2022-08-09T00:34:46.267Z,46.07
2022-08-09T00:35:43.675Z,49.06
2022-08-09T00:36:41.539Z,55.12
2022-08-09T00:37:41.276Z,56.40
2022-08-09T00:38:41.274Z,51.88
2022-08-09T00:40:12.531Z,51.21
2022-08-09T00:40:52.872Z,48.92
2022-08-09T00:44:11.856Z,48.45
2022-08-09T00:44:16.634Z,51.67
2022-08-09T00:44:16.717Z,57.49
2022-08-09T00:44:42.237Z,54.89
2022-08-09T00:45:50.730Z,55.43
2022-08-09T00:46:55.965Z,54.27
2022-08-09T00:47:42.198Z,49.31
2022-08-09T00:48:41.188Z,53.90
2022-08-09T00:49:42.190Z,50.33
2022-08-09T00:50:42.266Z,53.17
2022-08-09T00:51:54.201Z,49.86
2022-08-09T00:52:43.258Z,53.13
2022-08-09T00:53:43.187Z,48.22
2022-08-09T00:54:43.053Z,62.75
2022-08-09T00:56:05.305Z,55.73
2022-08-09T00:56:44.191Z,46.42
2022-08-09T00:57:42.208Z,58.06
2022-08-09T00:58:42.214Z,58.06
2022-08-09T00:59:47.172Z,46.59
2022-08-09T01:00:43.181Z,49.20
2022-08-09T01:01:44.536Z,48.63
2022-08-09T01:02:42.773Z,45.40
2022-08-09T01:03:46.260Z,50.96
2022-08-09T01:04:42.152Z,47.95
2022-08-09T01:05:53.371Z,55.50
2022-08-09T01:06:54.479Z,56.37
2022-08-09T01:08:00.952Z,55.01
2022-08-09T01:08:49.512Z,51.24
2022-08-09T01:09:43.118Z,57.09
2022-08-09T01:10:42.104Z,52.93
2022-08-09T01:11:42.098Z,53.89
2022-08-09T01:12:43.089Z,51.88
2022-08-09T01:13:58.687Z,51.41
2022-08-09T01:14:43.770Z,52.17
2022-08-09T01:15:52.487Z,55.38
2022-08-09T01:16:47.045Z,56.16
2022-08-09T01:17:42.053Z,52.35
2022-08-09T01:18:42.041Z,53.91
2022-08-09T01:19:56.979Z,55.25
2022-08-09T01:20:43.026Z,52.50
2022-08-09T01:21:45.165Z,48.21
2022-08-09T01:22:43.009Z,48.82
2022-08-09T01:24:02.903Z,51.46
2022-08-09T01:24:44.037Z,48.57
2022-08-09T01:25:48.988Z,49.36
2022-08-09T01:26:42.979Z,50.07
2022-08-09T01:27:41.980Z,47.15
2022-08-09T01:28:41.956Z,53.19
2022-08-09T01:29:55.810Z,49.69
2022-08-09T01:30:51.660Z,49.72
2022-08-09T01:32:31.247Z,53.74
2022-08-09T01:32:43.162Z,45.89
2022-08-09T01:33:41.920Z,45.65
2022-08-09T01:34:41.985Z,53.87
2022-08-09T01:35:42.335Z,50.91
2022-08-09T01:36:41.902Z,55.19
2022-08-09T01:38:06.395Z,46.65
2022-08-09T01:38:46.482Z,49.11
2022-08-09T01:39:41.906Z,49.91
2022-08-09T01:40:41.863Z,52.39
2022-08-09T01:41:57.247Z,47.92
2022-08-09T01:42:42.854Z,56.12
2022-08-09T01:43:50.522Z,46.86
2022-08-09T01:44:42.838Z,50.54
2022-08-09T01:45:44.817Z,49.71
2022-08-09T01:46:42.808Z,52.97
2022-08-09T01:47:44.829Z,52.11
2022-08-09T01:48:42.799Z,55.29
2022-08-09T01:49:41.798Z,56.22
2022-08-09T01:50:42.780Z,49.57
2022-08-09T01:51:44.672Z,55.53
2022-08-09T01:52:43.306Z,45.49
2022-08-09T01:53:41.938Z,50.85
2022-08-09T01:54:41.755Z,50.33
2022-08-09T01:55:41.741Z,48.93
2022-08-09T01:56:41.731Z,48.91
2022-08-09T01:57:45.888Z,44.91
2022-08-09T01:58:41.720Z,49.00
2022-08-09T01:59:51.552Z,49.24
2022-08-09T02:00:42.721Z,58.94
2022-08-09T02:01:59.346Z,44.94
2022-08-09T02:02:42.691Z,56.13
2022-08-09T02:03:41.684Z,48.72
2022-08-09T02:04:45.644Z,50.04
2022-08-09T02:05:53.639Z,48.46
2022-08-09T02:06:45.292Z,45.69
2022-08-09T02:08:35.100Z,50.30
2022-08-09T02:08:58.567Z,46.07
2022-08-09T02:09:43.634Z,46.27
2022-08-09T02:10:42.766Z,52.16
2022-08-09T02:11:43.702Z,54.58
2022-08-09T02:12:41.607Z,53.45
2022-08-09T02:13:42.289Z,54.67
2022-08-09T02:14:42.586Z,47.90
2022-08-09T02:15:49.606Z,51.42
2022-08-09T02:16:59.697Z,53.07
2022-08-09T02:18:00.176Z,51.63
2022-08-09T02:18:42.695Z,50.01
2022-08-09T02:19:43.284Z,53.94
2022-08-09T02:20:41.545Z,53.27
2022-08-09T02:21:41.532Z,54.59
2022-08-09T02:22:41.751Z,46.33
2022-08-09T02:23:43.166Z,47.41
2022-08-09T02:24:41.510Z,48.16
2022-08-09T02:25:42.370Z,47.02
2022-08-09T02:26:41.492Z,50.83
2022-08-09T02:27:43.484Z,45.82
2022-08-09T02:28:42.815Z,47.81
2022-08-09T02:29:41.471Z,48.50
2022-08-09T02:30:41.689Z,49.09
2022-08-09T02:31:41.454Z,49.00
2022-08-09T02:32:41.448Z,57.56
2022-08-09T02:34:06.375Z,56.47
2022-08-09T02:34:55.601Z,53.17
2022-08-09T02:36:01.185Z,51.13
2022-08-09T02:36:42.414Z,52.81
2022-08-09T02:37:41.405Z,54.02
2022-08-09T02:38:41.406Z,57.26
2022-08-09T02:39:44.541Z,56.50
2022-08-09T02:40:41.496Z,59.14
2022-08-09T02:41:41.373Z,57.28
2022-08-09T02:42:41.363Z,50.92
2022-08-09T02:43:42.618Z,51.73
2022-08-09T02:44:42.349Z,58.16
2022-08-09T02:45:42.294Z,59.65
2022-08-09T02:46:41.335Z,59.91
2022-08-09T02:47:58.036Z,54.17
2022-08-09T02:48:46.105Z,56.91
2022-08-09T02:49:41.680Z,54.12
2022-08-09T02:50:41.296Z,54.75
2022-08-09T02:51:41.295Z,57.42
2022-08-09T02:52:41.292Z,57.40
2022-08-09T02:53:43.152Z,54.29
2022-08-09T02:54:51.197Z,58.19
2022-08-09T02:55:57.966Z,60.32
2022-08-09T02:56:42.265Z,57.08
2022-08-09T02:58:00.762Z,55.91
2022-08-09T02:58:42.234Z,57.72
2022-08-09T03:00:11.627Z,54.99
2022-08-09T03:00:57.668Z,61.70
2022-08-09T03:01:58.542Z,59.70
2022-08-09T03:02:58.382Z,54.47
2022-08-09T03:04:17.596Z,53.77
2022-08-09T03:04:42.215Z,55.82
2022-08-09T03:05:41.198Z,54.26
2022-08-09T03:06:41.180Z,54.03
2022-08-09T03:07:41.159Z,57.18
2022-08-09T03:08:42.171Z,55.71
2022-08-09T03:09:42.597Z,55.04
2022-08-09T03:10:41.146Z,58.57
2022-08-09T03:12:10.376Z,60.39
2022-08-09T03:12:42.123Z,61.47
2022-08-09T03:13:43.775Z,58.81
2022-08-09T03:14:42.123Z,56.22
2022-08-09T03:16:06.766Z,55.16
2022-08-09T03:16:47.431Z,60.16
2022-08-09T03:17:43.101Z,59.71
2022-08-09T03:18:41.077Z,58.89
2022-08-09T03:19:58.125Z,59.55
2022-08-09T03:20:42.056Z,60.01
2022-08-09T03:21:41.054Z,57.10
2022-08-09T03:22:42.184Z,59.14
2022-08-09T03:23:41.038Z,55.71
2022-08-09T03:24:42.875Z,64.42
2022-08-09T03:25:57.963Z,58.94
2022-08-09T03:26:45.100Z,59.60
2022-08-09T03:27:45.226Z,58.90
2022-08-09T03:28:40.989Z,58.00
2022-08-09T03:29:57.163Z,62.06
2022-08-09T03:30:43.344Z,61.03
2022-08-09T03:31:42.469Z,57.94
2022-08-09T03:32:40.967Z,57.90
2022-08-09T03:33:54.518Z,61.90
2022-08-09T03:34:41.951Z,61.88
2022-08-09T03:35:44.495Z,61.94
2022-08-09T03:36:41.927Z,60.33
2022-08-09T03:37:55.605Z,65.59
2022-08-09T03:38:43.099Z,61.97
2022-08-09T03:39:40.931Z,60.86
2022-08-09T03:40:41.889Z,59.13
2022-08-09T03:41:45.958Z,59.93
2022-08-09T03:42:42.948Z,58.38
2022-08-09T03:43:40.871Z,61.49
2022-08-09T03:44:40.863Z,62.87
2022-08-09T03:46:04.145Z,60.58
2022-08-09T03:46:41.844Z,60.30
2022-08-09T03:47:46.352Z,55.81
2022-08-09T03:48:42.961Z,62.43
2022-08-09T03:49:41.817Z,62.03
2022-08-09T03:50:41.818Z,62.98
2022-08-09T03:51:55.979Z,64.97
2022-08-09T03:52:41.848Z,60.41
2022-08-09T03:53:40.792Z,59.39
2022-08-09T03:54:40.798Z,60.33
2022-08-09T03:55:42.342Z,60.74
2022-08-09T03:56:41.314Z,57.37
2022-08-09T03:57:44.509Z,63.55
2022-08-09T03:58:41.774Z,61.04
2022-08-09T03:59:53.668Z,63.87
2022-08-09T04:00:41.785Z,64.02
2022-08-09T04:01:40.727Z,63.60
2022-08-09T04:02:40.719Z,62.62
2022-08-09T04:03:46.199Z,67.07
2022-08-09T04:04:46.226Z,62.46
2022-08-09T04:05:42.697Z,60.31
2022-08-09T04:06:40.681Z,63.01
2022-08-09T04:07:52.425Z,59.03
2022-08-09T04:08:41.672Z,58.10
2022-08-09T04:09:47.557Z,58.45
2022-08-09T04:10:41.652Z,61.53
2022-08-09T04:11:40.644Z,63.17
2022-08-09T04:12:40.986Z,60.27
2022-08-09T04:13:45.011Z,61.31
2022-08-09T04:14:59.229Z,61.37
2022-08-09T04:16:20.193Z,63.10
2022-08-09T04:16:41.606Z,60.77
2022-08-09T04:17:42.325Z,58.75
2022-08-09T04:18:40.583Z,62.42
2022-08-09T04:19:51.040Z,62.65
2022-08-09T04:20:41.575Z,65.64
2022-08-09T04:21:40.750Z,64.36
2022-08-09T04:22:41.330Z,65.74
2022-08-09T04:23:40.547Z,63.67
2022-08-09T04:24:41.540Z,64.34
2022-08-09T04:25:40.533Z,62.70
2022-08-09T04:26:40.525Z,63.82
2022-08-09T04:27:40.530Z,64.74
2022-08-09T04:28:42.282Z,62.30
2022-08-09T04:29:50.157Z,59.34
2022-08-09T04:30:44.790Z,63.03
2022-08-09T04:31:47.259Z,63.88
2022-08-09T04:32:45.949Z,64.28
2022-08-09T04:33:52.107Z,63.10
2022-08-09T04:34:47.739Z,64.37
2022-08-09T04:35:42.353Z,65.34
2022-08-09T04:36:45.277Z,64.70
2022-08-09T04:37:45.264Z,63.43
2022-08-09T04:38:40.444Z,62.54
2022-08-09T04:39:41.015Z,62.65
2022-08-09T04:40:40.418Z,61.47
2022-08-09T04:41:43.547Z,62.65
2022-08-09T04:42:40.395Z,62.13
2022-08-09T04:43:49.883Z,60.73
2022-08-09T04:44:41.385Z,63.15
2022-08-09T04:45:53.736Z,61.50
2022-08-09T04:46:59.920Z,62.87
2022-08-09T04:47:59.439Z,63.02
2022-08-09T04:48:41.346Z,60.62
2022-08-09T04:49:54.676Z,62.65
2022-08-09T04:50:41.321Z,62.01
2022-08-09T04:51:41.329Z,63.13
2022-08-09T04:52:40.314Z,62.74
2022-08-09T04:53:40.579Z,62.22
2022-08-09T04:54:40.312Z,63.48
2022-08-09T04:55:43.332Z,64.66
2022-08-09T04:56:41.287Z,61.51
2022-08-09T04:57:54.208Z,66.54
2022-08-09T04:58:41.260Z,64.09
2022-08-09T04:59:40.266Z,62.25
2022-08-09T05:00:40.248Z,64.51
2022-08-09T05:01:40.251Z,64.73
2022-08-09T05:02:40.228Z,67.59
2022-08-09T05:03:43.471Z,64.70
2022-08-09T05:04:40.241Z,60.54
2022-08-09T05:05:52.623Z,64.44
2022-08-09T05:06:41.232Z,61.40
2022-08-09T05:07:40.241Z,62.63
2022-08-09T05:08:43.796Z,61.17
2022-08-09T05:09:45.365Z,62.91
2022-08-09T05:10:41.157Z,64.65
2022-08-09T05:11:41.182Z,64.04
2022-08-09T05:12:40.154Z,61.72
2022-08-09T05:13:40.140Z,64.42
2022-08-09T05:14:41.265Z,60.52
2022-08-09T05:15:47.773Z,64.54
2022-08-09T05:16:58.024Z,64.24
2022-08-09T05:18:37.520Z,60.60
2022-08-09T05:18:57.217Z,65.34
2022-08-09T05:19:44.842Z,63.78
2022-08-09T05:20:40.107Z,70.22
2022-08-09T05:21:47.218Z,65.69
2022-08-09T05:23:53.843Z,63.21
2022-08-09T05:23:57.134Z,65.84
2022-08-09T05:24:41.058Z,60.99
2022-08-09T05:25:40.040Z,64.37
2022-08-09T05:26:46.221Z,63.96
2022-08-09T05:27:46.616Z,63.76
2022-08-09T05:28:41.048Z,61.97
2022-08-09T05:29:40.015Z,62.96
2022-08-09T05:30:41.746Z,65.73
2022-08-09T05:31:45.909Z,61.46
2022-08-09T05:32:40.985Z,65.12
2022-08-09T05:33:40.767Z,63.05
2022-08-09T05:34:42.890Z,66.23
2022-08-09T05:35:46.967Z,64.90
2022-08-09T05:36:40.952Z,63.95
2022-08-09T05:37:47.763Z,63.10
2022-08-09T05:38:40.945Z,63.54
2022-08-09T05:39:43.615Z,65.11
2022-08-09T05:40:39.931Z,62.70
2022-08-09T05:41:39.913Z,63.04
2022-08-09T05:42:39.905Z,65.23
2022-08-09T05:43:45.030Z,62.82
2022-08-09T05:44:40.884Z,62.22
2022-08-09T05:45:52.990Z,63.09
2022-08-09T05:46:40.869Z,63.49
2022-08-09T05:47:45.627Z,61.85
2022-08-09T05:48:40.877Z,61.81
2022-08-09T05:50:32.032Z,60.90
2022-08-09T05:50:51.098Z,63.87
2022-08-09T05:51:41.840Z,64.30
2022-08-09T05:52:39.830Z,66.25
2022-08-09T05:53:57.063Z,62.44
2022-08-09T05:54:41.815Z,64.75
2022-08-09T05:55:39.827Z,62.53
2022-08-09T05:56:39.805Z,65.04
2022-08-09T05:57:50.903Z,62.80
2022-08-09T05:58:40.780Z,64.99
2022-08-09T05:59:39.786Z,62.45
2022-08-09T06:00:40.286Z,63.69
2022-08-09T06:01:42.838Z,63.01
2022-08-09T06:02:46.469Z,64.51
2022-08-09T06:03:54.542Z,67.70
2022-08-09T06:04:44.740Z,63.78
2022-08-09T06:05:57.591Z,64.74
2022-08-09T06:06:46.846Z,64.08
2022-08-09T06:07:40.707Z,63.50
2022-08-09T06:08:39.796Z,63.34
2022-08-09T06:09:54.138Z,63.48
2022-08-09T06:10:40.681Z,61.38
2022-08-09T06:11:40.787Z,63.96
2022-08-09T06:12:40.667Z,64.56
2022-08-09T06:13:39.668Z,62.68
2022-08-09T06:14:39.659Z,62.73
2022-08-09T06:15:39.648Z,62.11
2022-08-09T06:16:39.653Z,61.65
2022-08-09T06:17:40.621Z,64.12
2022-08-09T06:18:39.616Z,64.82
2022-08-09T06:19:40.668Z,63.57
2022-08-09T06:20:39.605Z,66.19
2022-08-09T06:21:39.708Z,63.54
2022-08-09T06:22:40.594Z,69.29
2022-08-09T06:23:55.076Z,65.10
2022-08-09T06:24:41.295Z,61.12
2022-08-09T06:25:39.576Z,61.35
2022-08-09T06:26:40.291Z,63.16
2022-08-09T06:27:42.756Z,65.77
2022-08-09T06:28:43.276Z,61.68
2022-08-09T06:29:48.271Z,62.01
2022-08-09T06:30:40.537Z,65.10
2022-08-09T06:32:24.653Z,66.22
2022-08-09T06:32:59.429Z,69.56
2022-08-09T06:33:42.166Z,68.26
2022-08-09T06:34:40.520Z,61.97
2022-08-09T06:35:57.726Z,65.24
2022-08-09T06:36:43.861Z,65.51
2022-08-09T06:37:52.727Z,64.61
2022-08-09T06:38:43.940Z,63.35
2022-08-09T06:39:57.665Z,62.80
2022-08-09T06:40:40.534Z,60.85
2022-08-09T06:42:07.647Z,61.52
2022-08-09T06:42:44.726Z,64.46
2022-08-09T06:43:39.638Z,63.83
2022-08-09T06:44:39.494Z,64.39
2022-08-09T06:46:06.772Z,64.61
2022-08-09T06:46:41.322Z,62.04
2022-08-09T06:47:41.720Z,64.16
2022-08-09T06:48:42.780Z,64.64
2022-08-09T06:50:12.677Z,61.25
2022-08-09T06:50:40.370Z,64.74
2022-08-09T06:51:40.039Z,64.97
2022-08-09T06:52:39.360Z,63.93
2022-08-09T06:53:39.339Z,62.79
2022-08-09T06:54:39.341Z,64.86
2022-08-09T06:55:39.337Z,63.66
2022-08-09T06:56:39.321Z,62.95
2022-08-09T06:58:01.185Z,65.15
2022-08-09T07:00:49.222Z,64.67
2022-08-09T07:00:53.061Z,62.68
2022-08-09T07:00:55.962Z,64.74
2022-08-09T07:01:54.255Z,62.78
2022-08-09T07:02:40.295Z,63.20
2022-08-09T07:03:51.703Z,61.74
2022-08-09T07:04:40.256Z,63.97
2022-08-09T07:05:53.603Z,64.19
2022-08-09T07:06:40.228Z,64.30
2022-08-09T07:07:59.922Z,62.20
2022-08-09T07:08:40.216Z,62.01
2022-08-09T07:09:54.140Z,62.59
2022-08-09T07:10:40.197Z,63.63
2022-08-09T07:11:52.080Z,63.35
2022-08-09T07:12:42.026Z,60.74
2022-08-09T07:13:45.328Z,63.47
2022-08-09T07:14:40.180Z,61.99
2022-08-09T07:16:40.719Z,66.08
2022-08-09T07:16:48.803Z,62.49
2022-08-09T07:17:56.233Z,62.33
2022-08-09T07:18:40.129Z,65.22
2022-08-09T07:19:39.128Z,63.83
2022-08-09T07:20:39.892Z,64.99
2022-08-09T07:21:39.115Z,64.86
2022-08-09T07:22:46.428Z,65.33
2022-08-09T07:23:46.672Z,62.67
2022-08-09T07:24:44.326Z,62.73
2022-08-09T07:25:42.842Z,64.56
2022-08-09T07:26:39.075Z,64.15
2022-08-09T07:27:42.705Z,64.10
2022-08-09T07:29:08.663Z,63.23
2022-08-09T07:29:42.662Z,63.48
2022-08-09T07:30:39.036Z,63.98
2022-08-09T07:31:45.984Z,64.85
2022-08-09T07:32:40.328Z,62.35
2022-08-09T07:33:52.831Z,60.71
2022-08-09T07:34:38.997Z,62.08
2022-08-09T07:35:53.411Z,65.87
2022-08-09T07:36:39.982Z,65.40
2022-08-09T07:37:42.991Z,64.84
2022-08-09T07:38:39.965Z,62.40
2022-08-09T07:39:41.469Z,61.95
2022-08-09T07:41:09.910Z,62.81
2022-08-09T07:41:40.942Z,60.42
2022-08-09T07:42:38.946Z,63.57
2022-08-09T07:43:41.076Z,61.33
2022-08-09T07:44:51.841Z,64.42
2022-08-09T07:45:40.952Z,61.62
2022-08-09T07:46:38.919Z,62.06
2022-08-09T07:47:49.592Z,61.36
2022-08-09T07:48:39.886Z,61.87
2022-08-09T07:50:04.589Z,61.50
2022-08-09T07:50:39.883Z,61.36
2022-08-09T07:52:05.387Z,64.56
2022-08-09T07:52:39.859Z,64.01
2022-08-09T07:54:04.532Z,64.01
2022-08-09T07:54:39.850Z,64.93
2022-08-09T07:55:41.399Z,62.34
2022-08-09T07:56:44.921Z,63.79
2022-08-09T07:57:46.600Z,66.48
2022-08-09T07:58:39.819Z,62.43
2022-08-09T07:59:50.843Z,62.83
2022-08-09T08:00:58.696Z,65.39
2022-08-09T08:01:39.878Z,63.65
2022-08-09T08:02:42.672Z,64.69
2022-08-09T08:03:38.766Z,65.45
2022-08-09T08:04:38.808Z,66.63
2022-08-09T08:05:54.196Z,62.36
2022-08-09T08:06:55.796Z,61.69
2022-08-09T08:09:00.759Z,62.75
2022-08-09T08:09:02.469Z,60.51
2022-08-09T08:09:51.774Z,60.50
2022-08-09T08:10:40.395Z,61.69
2022-08-09T08:12:11.391Z,61.34
2022-08-09T08:12:43.442Z,60.96
2022-08-09T08:13:44.972Z,60.02
2022-08-09T08:14:39.698Z,62.31
2022-08-09T08:15:39.427Z,63.63
2022-08-09T08:16:39.518Z,61.30
2022-08-09T08:17:55.208Z,62.21
2022-08-09T08:18:39.662Z,63.78
2022-08-09T08:19:38.656Z,65.17
2022-08-09T08:20:38.645Z,63.33
2022-08-09T08:21:39.776Z,68.56
2022-08-09T08:22:39.630Z,63.34
2022-08-09T08:23:38.622Z,63.99
2022-08-09T08:24:40.205Z,61.66
2022-08-09T08:25:44.602Z,63.68
2022-08-09T08:26:55.084Z,62.23
2022-08-09T08:27:40.772Z,61.50
2022-08-09T08:28:38.580Z,61.60
2022-08-09T08:29:39.372Z,62.00
2022-08-09T08:30:40.374Z,62.92
2022-08-09T08:32:02.468Z,63.33
2022-08-09T08:32:52.246Z,65.51
2022-08-09T08:33:40.647Z,64.67
2022-08-09T08:34:39.538Z,63.24
2022-08-09T08:35:58.205Z,62.69
2022-08-09T08:36:40.153Z,64.30
2022-08-09T08:37:40.707Z,62.04
2022-08-09T08:38:38.506Z,65.10
2022-08-09T08:39:43.430Z,64.11
2022-08-09T08:40:41.352Z,61.76
2022-08-09T08:41:50.896Z,61.77
2022-08-09T08:42:39.508Z,61.01
2022-08-09T08:43:38.470Z,61.76
2022-08-09T08:44:39.398Z,62.49
2022-08-09T08:45:38.449Z,62.11
2022-08-09T08:46:41.649Z,63.06
2022-08-09T08:47:42.641Z,62.31
2022-08-09T08:48:38.437Z,62.66
2022-08-09T08:49:47.659Z,61.57
2022-08-09T08:50:39.413Z,63.73
2022-08-09T08:51:41.921Z,62.93
2022-08-09T08:52:58.743Z,64.39
2022-08-09T08:54:03.187Z,64.62
2022-08-09T08:54:39.392Z,61.59
2022-08-09T08:55:38.383Z,63.06
2022-08-09T08:56:38.383Z,63.69
2022-08-09T08:57:38.364Z,61.62
2022-08-09T08:58:38.361Z,61.35
2022-08-09T08:59:46.712Z,62.29
2022-08-09T09:00:39.333Z,65.55
2022-08-09T09:01:52.079Z,61.36
2022-08-09T09:02:39.945Z,62.63
2022-08-09T09:03:38.481Z,65.27
2022-08-09T09:04:47.857Z,63.89
2022-08-09T09:06:03.290Z,62.27
2022-08-09T09:06:39.286Z,61.64
2022-08-09T09:07:39.997Z,59.82
2022-08-09T09:08:40.796Z,61.72
2022-08-09T09:09:58.148Z,64.88
2022-08-09T09:10:39.249Z,61.41
2022-08-09T09:11:38.562Z,61.31
2022-08-09T09:12:38.255Z,63.28
2022-08-09T09:13:47.267Z,62.69
2022-08-09T09:14:39.214Z,58.64
2022-08-09T09:15:38.217Z,64.24
2022-08-09T09:16:38.190Z,61.31
2022-08-09T09:17:48.315Z,61.68
2022-08-09T09:18:39.243Z,64.40
2022-08-09T09:19:41.112Z,63.72
2022-08-09T09:20:39.177Z,65.48
2022-08-09T09:21:43.194Z,67.26
2022-08-09T09:22:39.334Z,62.42
2022-08-09T09:23:38.206Z,63.83
2022-08-09T09:24:39.648Z,63.61
2022-08-09T09:26:04.877Z,62.93
2022-08-09T09:26:39.156Z,65.88
2022-08-09T09:28:03.781Z,64.51
2022-08-09T09:29:04.378Z,70.02
2022-08-09T09:30:10.707Z,60.57
2022-08-09T09:30:41.483Z,66.23
2022-08-09T09:32:06.631Z,62.23
2022-08-09T09:32:39.133Z,63.37
2022-08-09T09:33:44.373Z,62.27
2022-08-09T09:34:39.052Z,61.80
2022-08-09T09:35:39.072Z,60.33
2022-08-09T09:36:38.036Z,66.88
2022-08-09T09:37:40.364Z,63.45
2022-08-09T09:38:38.036Z,63.08
2022-08-09T09:39:54.998Z,61.74
2022-08-09T09:40:39.019Z,65.19
2022-08-09T09:41:49.021Z,65.02
2022-08-09T09:42:38.989Z,61.81
2022-08-09T09:43:41.623Z,61.46
2022-08-09T09:44:40.454Z,63.96
2022-08-09T09:45:56.904Z,62.20
2022-08-09T09:46:42.918Z,60.46
2022-08-09T09:47:47.676Z,62.34
2022-08-09T09:48:41.118Z,62.50
2022-08-09T09:50:13.289Z,61.94
2022-08-09T09:50:38.919Z,61.34
2022-08-09T09:51:40.417Z,64.61
2022-08-09T09:52:37.927Z,62.09
2022-08-09T09:53:57.411Z,64.50
2022-08-09T09:54:38.907Z,66.19
2022-08-09T09:55:37.889Z,61.94
2022-08-09T09:56:37.881Z,61.61
2022-08-09T09:58:03.908Z,62.81
2022-08-09T09:58:38.867Z,60.92
2022-08-09T09:59:37.859Z,65.80
2022-08-09T10:00:38.021Z,66.95
2022-08-09T10:01:40.521Z,64.47
2022-08-09T10:02:38.833Z,64.17
2022-08-09T10:03:37.874Z,64.55
2022-08-09T10:04:37.844Z,62.89
2022-08-09T10:06:03.309Z,62.30
2022-08-09T10:06:38.842Z,63.65
2022-08-09T10:07:38.379Z,64.02
2022-08-09T10:08:43.339Z,61.55
2022-08-09T10:09:40.073Z,63.62
2022-08-09T10:10:38.763Z,62.09
2022-08-09T10:12:07.594Z,62.31
2022-08-09T10:12:43.698Z,61.28
2022-08-09T10:13:43.172Z,62.92
2022-08-09T10:14:38.807Z,59.91
2022-08-09T10:16:09.310Z,65.50
2022-08-09T10:16:56.780Z,62.99
2022-08-09T10:17:56.471Z,62.39
2022-08-09T10:18:38.705Z,64.63
2022-08-09T10:19:38.719Z,62.60
2022-08-09T10:20:44.886Z,62.57
2022-08-09T10:21:38.693Z,65.49
2022-08-09T10:22:39.050Z,64.31
2022-08-09T10:23:37.659Z,65.50
2022-08-09T10:24:37.652Z,64.69
2022-08-09T10:26:06.624Z,62.67
2022-08-09T10:26:38.639Z,62.40
2022-08-09T10:27:38.607Z,62.81
2022-08-09T10:28:40.469Z,65.27
2022-08-09T10:30:28.363Z,63.36
2022-08-09T10:32:37.416Z,65.69
2022-08-09T10:32:42.525Z,65.38
2022-08-09T10:34:09.544Z,62.13
2022-08-09T10:34:38.769Z,62.71
2022-08-09T10:35:37.633Z,63.74
2022-08-09T10:36:38.420Z,64.37
2022-08-09T10:37:38.928Z,65.07
2022-08-09T10:38:57.202Z,63.95
2022-08-09T10:39:40.966Z,62.51
2022-08-09T10:40:41.180Z,63.27
2022-08-09T10:41:40.404Z,62.36
2022-08-09T10:42:39.423Z,63.95
2022-08-09T10:43:47.019Z,62.25
2022-08-09T10:44:39.850Z,61.83
2022-08-09T10:45:49.343Z,65.21
2022-08-09T10:46:54.201Z,65.16
2022-08-09T10:48:13.364Z,64.40
2022-08-09T10:48:40.436Z,64.93
2022-08-09T10:49:51.007Z,65.95
2022-08-09T10:50:39.965Z,66.49
2022-08-09T10:51:40.930Z,65.58
2022-08-09T10:52:37.435Z,65.00
2022-08-09T10:53:39.535Z,65.96
2022-08-09T10:54:38.438Z,64.67
2022-08-09T10:55:55.082Z,66.80
2022-08-09T10:56:39.403Z,66.53
2022-08-09T10:57:37.804Z,67.94
2022-08-09T10:58:37.658Z,71.73
2022-08-09T10:59:53.754Z,71.24
2022-08-09T11:00:41.875Z,71.46
2022-08-09T11:03:14.277Z,62.91
2022-08-09T11:03:15.527Z,63.65
2022-08-09T11:03:50.025Z,64.74
2022-08-09T11:04:55.587Z,67.45
2022-08-09T11:05:38.407Z,62.77
2022-08-09T11:06:38.328Z,62.69
2022-08-09T11:07:56.851Z,61.08
2022-08-09T11:08:40.819Z,61.36
2022-08-09T11:09:38.307Z,63.29
2022-08-09T11:10:37.308Z,58.92
2022-08-09T11:11:37.339Z,60.36
2022-08-09T11:12:38.403Z,62.63
2022-08-09T11:13:53.984Z,62.03
2022-08-09T11:14:38.926Z,61.81
2022-08-09T11:15:38.463Z,63.17
2022-08-09T11:16:38.379Z,64.40
2022-08-09T11:17:41.909Z,60.68
2022-08-09T11:18:37.371Z,64.70
2022-08-09T11:20:10.964Z,65.51
2022-08-09T11:20:38.435Z,63.97
2022-08-09T11:21:37.203Z,64.73
2022-08-09T11:22:37.458Z,63.90
2022-08-09T11:23:37.196Z,63.27
2022-08-09T11:24:37.203Z,61.18
2022-08-09T11:25:47.696Z,63.32
2022-08-09T11:26:38.182Z,63.53
2022-08-09T11:28:08.008Z,61.92
2022-08-09T11:28:54.061Z,62.07
2022-08-09T11:30:06.065Z,63.27
2022-08-09T11:30:38.470Z,64.21
2022-08-09T11:31:37.125Z,61.68
2022-08-09T11:32:37.120Z,63.15
2022-08-09T11:33:37.103Z,61.31
2022-08-09T11:34:37.097Z,58.39
2022-08-09T11:35:50.074Z,60.67
2022-08-09T11:36:38.112Z,62.72
2022-08-09T11:37:40.890Z,64.12
2022-08-09T11:38:41.305Z,62.83
2022-08-09T11:39:38.730Z,62.09
2022-08-09T11:40:38.021Z,63.81
2022-08-09T11:41:38.493Z,61.81
2022-08-09T11:42:37.038Z,61.94
2022-08-09T11:43:37.367Z,62.38
2022-08-09T11:44:37.035Z,60.78
2022-08-09T11:45:37.814Z,59.51
2022-08-09T11:46:38.035Z,60.28
2022-08-09T11:47:37.002Z,61.49
2022-08-09T11:48:37.000Z,61.94
2022-08-09T11:49:42.793Z,60.47
2022-08-09T11:50:55.431Z,62.72
2022-08-09T11:53:02.938Z,61.04
2022-08-09T11:53:04.368Z,64.37
2022-08-09T11:53:58.692Z,64.33
2022-08-09T11:54:37.940Z,62.42
2022-08-09T11:55:52.836Z,64.45
2022-08-09T11:56:42.458Z,61.91
2022-08-09T11:57:47.668Z,64.63
2022-08-09T11:58:37.909Z,62.82
2022-08-09T11:59:38.070Z,67.16
2022-08-09T12:00:36.894Z,66.59
2022-08-09T12:02:01.186Z,62.53
2022-08-09T12:02:40.776Z,64.34
2022-08-09T12:03:56.803Z,65.80
2022-08-09T12:04:38.315Z,63.30
2022-08-09T12:05:42.301Z,63.25
2022-08-09T12:06:38.846Z,62.90
2022-08-09T12:07:41.874Z,63.16
2022-08-09T12:08:36.832Z,62.51
2022-08-09T12:09:37.435Z,62.75
2022-08-09T12:10:39.432Z,58.73
2022-08-09T12:11:44.609Z,62.61
2022-08-09T12:12:40.570Z,62.88
2022-08-09T12:14:09.408Z,60.46
2022-08-09T12:15:08.318Z,61.51
2022-08-09T12:15:50.067Z,62.55
2022-08-09T12:16:40.059Z,62.35
2022-08-09T12:17:44.272Z,63.34
2022-08-09T12:18:37.752Z,64.72
2022-08-09T12:19:36.741Z,62.36
2022-08-09T12:20:36.749Z,65.93
2022-08-09T12:21:38.660Z,64.93
2022-08-09T12:22:36.728Z,65.86
2022-08-09T12:24:00.402Z,61.54
2022-08-09T12:24:37.703Z,62.38
2022-08-09T12:25:38.222Z,62.15
2022-08-09T12:26:36.710Z,61.29
2022-08-09T12:29:10.284Z,64.82
2022-08-09T12:29:12.146Z,65.43
2022-08-09T12:29:44.771Z,63.51
2022-08-09T12:30:39.115Z,65.24
2022-08-09T12:32:01.965Z,65.19
2022-08-09T12:32:40.817Z,62.90
2022-08-09T12:33:59.211Z,63.34
2022-08-09T12:34:37.789Z,62.29
2022-08-09T12:35:40.889Z,61.99
2022-08-09T12:36:38.617Z,64.27
2022-08-09T12:37:50.278Z,63.65
2022-08-09T12:38:38.704Z,61.71
2022-08-09T12:39:37.702Z,63.89
2022-08-09T12:40:36.602Z,62.00
2022-08-09T12:41:40.008Z,62.68
2022-08-09T12:42:37.573Z,61.84
2022-08-09T12:44:06.661Z,62.62
2022-08-09T12:44:37.651Z,61.55
2022-08-09T12:45:38.730Z,62.07
2022-08-09T12:46:36.555Z,60.65
2022-08-09T12:47:40.670Z,61.46
2022-08-09T12:48:37.544Z,62.88
2022-08-09T12:49:36.521Z,62.59
2022-08-09T12:50:36.522Z,62.54
2022-08-09T12:51:59.884Z,64.71
2022-08-09T12:52:42.596Z,62.45
2022-08-09T12:53:38.707Z,60.92
2022-08-09T12:54:38.469Z,62.60
2022-08-09T12:56:15.478Z,64.07